sensor_id;sensor_type;location;lat;lon;timestamp;temperature;humidity
19970;DHT22;10146;47.754;9.566;2024-01-30T00:01:42;-0.20;99.90
19970;DHT22;10146;47.754;9.566;2024-01-30T00:04:08;-0.20;99.90
19970;DHT22;10146;47.754;9.566;2024-01-30T00:06:34;-0.20;99.90
19970;DHT22;10146;47.754;9.566;2024-01-30T00:08:59;-0.20;99.90
19970;DHT22;10146;47.754;9.566;2024-01-30T00:11:25;-0.20;99.90
19970;DHT22;10146;47.754;9.566;2024-01-30T00:13:51;-0.20;99.90
19970;DHT22;10146;47.754;9.566;2024-01-30T00:16:24;-0.20;99.90
19970;DHT22;10146;47.754;9.566;2024-01-30T00:18:53;-0.20;99.90
19970;DHT22;10146;47.754;9.566;2024-01-30T00:21:19;-0.30;99.90
19970;DHT22;10146;47.754;9.566;2024-01-30T00:23:46;-0.30;99.90
19970;DHT22;10146;47.754;9.566;2024-01-30T00:26:11;-0.40;99.90
19970;DHT22;10146;47.754;9.566;2024-01-30T00:28:38;-0.40;99.90
19970;DHT22;10146;47.754;9.566;2024-01-30T00:31:04;-0.40;99.90
19970;DHT22;10146;47.754;9.566;2024-01-30T00:33:29;-0.40;99.90
19970;DHT22;10146;47.754;9.566;2024-01-30T00:35:55;-0.40;99.90
19970;DHT22;10146;47.754;9.566;2024-01-30T00:38:21;-0.40;99.90
19970;DHT22;10146;47.754;9.566;2024-01-30T00:40:48;-0.40;99.90
19970;DHT22;10146;47.754;9.566;2024-01-30T00:43:13;-0.50;99.90
19970;DHT22;10146;47.754;9.566;2024-01-30T00:45:39;-0.50;99.90
19970;DHT22;10146;47.754;9.566;2024-01-30T00:48:05;-0.50;99.90
19970;DHT22;10146;47.754;9.566;2024-01-30T00:50:31;-0.40;99.90
19970;DHT22;10146;47.754;9.566;2024-01-30T00:52:56;-0.40;99.90
19970;DHT22;10146;47.754;9.566;2024-01-30T00:55:22;-0.40;99.90
19970;DHT22;10146;47.754;9.566;2024-01-30T00:57:48;-0.30;99.90
19970;DHT22;10146;47.754;9.566;2024-01-30T01:00:14;-0.30;99.90
19970;DHT22;10146;47.754;9.566;2024-01-30T01:02:42;-0.20;99.90
19970;DHT22;10146;47.754;9.566;2024-01-30T01:05:08;-0.20;99.90
19970;DHT22;10146;47.754;9.566;2024-01-30T01:07:34;-0.20;99.90
19970;DHT22;10146;47.754;9.566;2024-01-30T01:10:00;-0.20;99.90
19970;DHT22;10146;47.754;9.566;2024-01-30T01:12:26;-0.20;99.90
19970;DHT22;10146;47.754;9.566;2024-01-30T01:14:52;-0.20;99.90
19970;DHT22;10146;47.754;9.566;2024-01-30T01:17:17;-0.20;99.90
19970;DHT22;10146;47.754;9.566;2024-01-30T01:19:44;-0.20;99.90
19970;DHT22;10146;47.754;9.566;2024-01-30T01:22:10;-0.20;99.90
19970;DHT22;10146;47.754;9.566;2024-01-30T01:24:36;-0.20;99.90
19970;DHT22;10146;47.754;9.566;2024-01-30T01:27:01;-0.20;99.90
19970;DHT22;10146;47.754;9.566;2024-01-30T01:29:27;-0.20;99.90
19970;DHT22;10146;47.754;9.566;2024-01-30T01:31:56;-0.20;99.90
19970;DHT22;10146;47.754;9.566;2024-01-30T01:34:22;-0.20;99.90
19970;DHT22;10146;47.754;9.566;2024-01-30T01:36:49;-0.20;99.90
19970;DHT22;10146;47.754;9.566;2024-01-30T01:39:15;-0.20;99.90
19970;DHT22;10146;47.754;9.566;2024-01-30T01:41:41;-0.20;99.90
19970;DHT22;10146;47.754;9.566;2024-01-30T01:44:07;-0.20;99.90
19970;DHT22;10146;47.754;9.566;2024-01-30T01:46:34;-0.20;99.90
19970;DHT22;10146;47.754;9.566;2024-01-30T01:49:04;-0.20;99.90
19970;DHT22;10146;47.754;9.566;2024-01-30T01:51:32;-0.20;99.90
19970;DHT22;10146;47.754;9.566;2024-01-30T01:54:00;-0.20;99.90
19970;DHT22;10146;47.754;9.566;2024-01-30T01:56:27;-0.20;99.90
19970;DHT22;10146;47.754;9.566;2024-01-30T01:58:55;-0.20;99.90
19970;DHT22;10146;47.754;9.566;2024-01-30T02:01:21;-0.20;99.90
19970;DHT22;10146;47.754;9.566;2024-01-30T02:03:48;-0.20;99.90
19970;DHT22;10146;47.754;9.566;2024-01-30T02:06:14;-0.20;99.90
19970;DHT22;10146;47.754;9.566;2024-01-30T02:08:42;-0.10;99.90
19970;DHT22;10146;47.754;9.566;2024-01-30T02:11:08;-0.20;99.90
19970;DHT22;10146;47.754;9.566;2024-01-30T02:13:35;-0.10;99.90
19970;DHT22;10146;47.754;9.566;2024-01-30T02:16:01;-0.20;99.90
19970;DHT22;10146;47.754;9.566;2024-01-30T02:18:26;-0.20;99.90
19970;DHT22;10146;47.754;9.566;2024-01-30T02:20:54;-0.20;99.90
19970;DHT22;10146;47.754;9.566;2024-01-30T02:23:23;-0.20;99.90
19970;DHT22;10146;47.754;9.566;2024-01-30T02:25:50;-0.10;99.90
19970;DHT22;10146;47.754;9.566;2024-01-30T02:28:18;-0.20;99.90
19970;DHT22;10146;47.754;9.566;2024-01-30T02:30:45;-0.20;99.90
19970;DHT22;10146;47.754;9.566;2024-01-30T02:33:11;-0.20;99.90
19970;DHT22;10146;47.754;9.566;2024-01-30T02:35:37;-0.30;99.90
19970;DHT22;10146;47.754;9.566;2024-01-30T02:38:02;-0.20;99.90
19970;DHT22;10146;47.754;9.566;2024-01-30T02:40:28;-0.20;99.90
19970;DHT22;10146;47.754;9.566;2024-01-30T02:42:54;-0.20;99.90
19970;DHT22;10146;47.754;9.566;2024-01-30T02:45:19;-0.20;99.90
19970;DHT22;10146;47.754;9.566;2024-01-30T02:47:46;-0.30;99.90
19970;DHT22;10146;47.754;9.566;2024-01-30T02:50:11;-0.20;99.90
19970;DHT22;10146;47.754;9.566;2024-01-30T02:52:37;-0.20;99.90
19970;DHT22;10146;47.754;9.566;2024-01-30T02:55:03;-0.20;99.90
19970;DHT22;10146;47.754;9.566;2024-01-30T02:57:28;-0.20;99.90
19970;DHT22;10146;47.754;9.566;2024-01-30T02:59:54;-0.20;99.90
19970;DHT22;10146;47.754;9.566;2024-01-30T03:02:20;-0.20;99.90
19970;DHT22;10146;47.754;9.566;2024-01-30T03:04:46;-0.20;99.90
19970;DHT22;10146;47.754;9.566;2024-01-30T03:07:12;-0.30;99.90
19970;DHT22;10146;47.754;9.566;2024-01-30T03:09:37;-0.30;99.90
19970;DHT22;10146;47.754;9.566;2024-01-30T03:12:04;-0.20;99.90
19970;DHT22;10146;47.754;9.566;2024-01-30T03:14:33;-0.30;99.90
19970;DHT22;10146;47.754;9.566;2024-01-30T03:16:58;-0.30;99.90
19970;DHT22;10146;47.754;9.566;2024-01-30T03:19:24;-0.40;99.90
19970;DHT22;10146;47.754;9.566;2024-01-30T03:21:50;-0.50;99.90
19970;DHT22;10146;47.754;9.566;2024-01-30T03:24:16;-0.50;99.90
19970;DHT22;10146;47.754;9.566;2024-01-30T03:26:42;-0.50;99.90
19970;DHT22;10146;47.754;9.566;2024-01-30T03:29:08;-0.60;99.90
19970;DHT22;10146;47.754;9.566;2024-01-30T03:31:34;-0.60;99.90
19970;DHT22;10146;47.754;9.566;2024-01-30T03:34:00;-0.60;99.90
19970;DHT22;10146;47.754;9.566;2024-01-30T03:36:25;-0.60;99.90
19970;DHT22;10146;47.754;9.566;2024-01-30T03:38:51;-0.60;99.90
19970;DHT22;10146;47.754;9.566;2024-01-30T03:41:17;-0.60;99.90
19970;DHT22;10146;47.754;9.566;2024-01-30T03:43:42;-0.60;99.90
19970;DHT22;10146;47.754;9.566;2024-01-30T03:46:08;-0.50;99.90
19970;DHT22;10146;47.754;9.566;2024-01-30T03:48:33;-0.50;99.90
19970;DHT22;10146;47.754;9.566;2024-01-30T03:50:59;-0.60;99.90
19970;DHT22;10146;47.754;9.566;2024-01-30T03:53:25;-0.60;99.90
19970;DHT22;10146;47.754;9.566;2024-01-30T03:55:51;-0.70;99.90
19970;DHT22;10146;47.754;9.566;2024-01-30T03:58:16;-0.70;99.90
19970;DHT22;10146;47.754;9.566;2024-01-30T04:00:42;-0.70;99.90
19970;DHT22;10146;47.754;9.566;2024-01-30T04:03:08;-0.70;99.90
19970;DHT22;10146;47.754;9.566;2024-01-30T04:05:33;-0.70;99.90
19970;DHT22;10146;47.754;9.566;2024-01-30T04:07:59;-0.80;99.90
19970;DHT22;10146;47.754;9.566;2024-01-30T04:10:24;-0.80;99.90
19970;DHT22;10146;47.754;9.566;2024-01-30T04:12:51;-0.80;99.90
19970;DHT22;10146;47.754;9.566;2024-01-30T04:15:17;-0.80;99.90
19970;DHT22;10146;47.754;9.566;2024-01-30T04:17:44;-0.70;99.90
19970;DHT22;10146;47.754;9.566;2024-01-30T04:20:17;-0.70;99.90
19970;DHT22;10146;47.754;9.566;2024-01-30T04:22:46;-0.70;99.90
19970;DHT22;10146;47.754;9.566;2024-01-30T04:25:13;-0.60;99.90
19970;DHT22;10146;47.754;9.566;2024-01-30T04:27:39;-0.60;99.90
19970;DHT22;10146;47.754;9.566;2024-01-30T04:30:05;-0.60;99.90
19970;DHT22;10146;47.754;9.566;2024-01-30T04:32:32;-0.60;99.90
19970;DHT22;10146;47.754;9.566;2024-01-30T04:34:57;-0.60;99.90
19970;DHT22;10146;47.754;9.566;2024-01-30T04:37:23;-0.60;99.90
19970;DHT22;10146;47.754;9.566;2024-01-30T04:39:49;-0.60;99.90
19970;DHT22;10146;47.754;9.566;2024-01-30T04:42:14;-0.60;99.90
19970;DHT22;10146;47.754;9.566;2024-01-30T04:44:40;-0.60;99.90
19970;DHT22;10146;47.754;9.566;2024-01-30T04:47:05;-0.60;99.90
19970;DHT22;10146;47.754;9.566;2024-01-30T04:49:34;-0.50;99.90
19970;DHT22;10146;47.754;9.566;2024-01-30T04:52:00;-0.50;99.90
19970;DHT22;10146;47.754;9.566;2024-01-30T04:54:25;-0.50;99.90
19970;DHT22;10146;47.754;9.566;2024-01-30T04:56:51;-0.50;99.90
19970;DHT22;10146;47.754;9.566;2024-01-30T04:59:17;-0.50;99.90
19970;DHT22;10146;47.754;9.566;2024-01-30T05:01:42;-0.50;99.90
19970;DHT22;10146;47.754;9.566;2024-01-30T05:04:08;-0.50;99.90
19970;DHT22;10146;47.754;9.566;2024-01-30T05:06:34;-0.50;99.90
19970;DHT22;10146;47.754;9.566;2024-01-30T05:09:00;-0.50;99.90
19970;DHT22;10146;47.754;9.566;2024-01-30T05:11:25;-0.50;99.90
19970;DHT22;10146;47.754;9.566;2024-01-30T05:13:51;-0.50;99.90
19970;DHT22;10146;47.754;9.566;2024-01-30T05:16:17;-0.60;99.90
19970;DHT22;10146;47.754;9.566;2024-01-30T05:18:43;-0.60;99.90
19970;DHT22;10146;47.754;9.566;2024-01-30T05:21:08;-0.60;99.90
19970;DHT22;10146;47.754;9.566;2024-01-30T05:23:35;-0.60;99.90
19970;DHT22;10146;47.754;9.566;2024-01-30T05:26:01;-0.60;99.90
19970;DHT22;10146;47.754;9.566;2024-01-30T05:28:29;-0.60;99.90
19970;DHT22;10146;47.754;9.566;2024-01-30T05:30:55;-0.60;99.90
19970;DHT22;10146;47.754;9.566;2024-01-30T05:33:20;-0.60;99.90
19970;DHT22;10146;47.754;9.566;2024-01-30T05:35:46;-0.60;99.90
19970;DHT22;10146;47.754;9.566;2024-01-30T05:38:12;-0.60;99.90
19970;DHT22;10146;47.754;9.566;2024-01-30T05:40:38;-0.60;99.90
19970;DHT22;10146;47.754;9.566;2024-01-30T05:43:03;-0.60;99.90
19970;DHT22;10146;47.754;9.566;2024-01-30T05:45:29;-0.60;99.90
19970;DHT22;10146;47.754;9.566;2024-01-30T05:47:54;-0.70;99.90
19970;DHT22;10146;47.754;9.566;2024-01-30T05:50:20;-0.60;99.90
19970;DHT22;10146;47.754;9.566;2024-01-30T05:52:48;-0.70;99.90
19970;DHT22;10146;47.754;9.566;2024-01-30T05:55:14;-0.60;99.90
19970;DHT22;10146;47.754;9.566;2024-01-30T05:57:39;-0.70;99.90
19970;DHT22;10146;47.754;9.566;2024-01-30T06:00:05;-0.70;99.90
19970;DHT22;10146;47.754;9.566;2024-01-30T06:02:31;-0.70;99.90
19970;DHT22;10146;47.754;9.566;2024-01-30T06:04:58;-0.70;99.90
19970;DHT22;10146;47.754;9.566;2024-01-30T06:07:23;-0.70;99.90
19970;DHT22;10146;47.754;9.566;2024-01-30T06:09:49;-0.70;99.90
19970;DHT22;10146;47.754;9.566;2024-01-30T06:12:14;-0.70;99.90
19970;DHT22;10146;47.754;9.566;2024-01-30T06:14:41;-0.80;99.90
19970;DHT22;10146;47.754;9.566;2024-01-30T06:17:08;-0.70;99.90
19970;DHT22;10146;47.754;9.566;2024-01-30T06:19:33;-0.70;99.90
19970;DHT22;10146;47.754;9.566;2024-01-30T06:21:59;-0.70;99.90
19970;DHT22;10146;47.754;9.566;2024-01-30T06:24:25;-0.80;99.90
19970;DHT22;10146;47.754;9.566;2024-01-30T06:26:50;-0.80;99.90
19970;DHT22;10146;47.754;9.566;2024-01-30T06:29:16;-0.80;99.90
19970;DHT22;10146;47.754;9.566;2024-01-30T06:31:42;-0.90;99.90
19970;DHT22;10146;47.754;9.566;2024-01-30T06:34:09;-0.90;99.90
19970;DHT22;10146;47.754;9.566;2024-01-30T06:36:35;-0.90;99.90
19970;DHT22;10146;47.754;9.566;2024-01-30T06:39:02;-0.90;99.90
19970;DHT22;10146;47.754;9.566;2024-01-30T06:41:27;-0.90;99.90
19970;DHT22;10146;47.754;9.566;2024-01-30T06:43:53;-0.90;99.90
19970;DHT22;10146;47.754;9.566;2024-01-30T06:46:18;-0.90;99.90
19970;DHT22;10146;47.754;9.566;2024-01-30T06:48:44;-0.80;99.90
19970;DHT22;10146;47.754;9.566;2024-01-30T06:51:11;-0.80;99.90
19970;DHT22;10146;47.754;9.566;2024-01-30T06:53:37;-0.80;99.90
19970;DHT22;10146;47.754;9.566;2024-01-30T06:56:03;-0.80;99.90
19970;DHT22;10146;47.754;9.566;2024-01-30T06:58:28;-0.80;99.90
19970;DHT22;10146;47.754;9.566;2024-01-30T07:00:54;-0.80;99.90
19970;DHT22;10146;47.754;9.566;2024-01-30T07:03:20;-0.80;99.90
19970;DHT22;10146;47.754;9.566;2024-01-30T07:05:46;-0.70;99.90
19970;DHT22;10146;47.754;9.566;2024-01-30T07:08:11;-0.70;99.90
19970;DHT22;10146;47.754;9.566;2024-01-30T07:10:37;-0.70;99.90
19970;DHT22;10146;47.754;9.566;2024-01-30T07:13:02;-0.70;99.90
19970;DHT22;10146;47.754;9.566;2024-01-30T07:15:30;-0.60;99.90
19970;DHT22;10146;47.754;9.566;2024-01-30T07:17:56;-0.60;99.90
19970;DHT22;10146;47.754;9.566;2024-01-30T07:20:21;-0.60;99.90
19970;DHT22;10146;47.754;9.566;2024-01-30T07:22:47;-0.70;99.90
19970;DHT22;10146;47.754;9.566;2024-01-30T07:25:13;-0.70;99.90
19970;DHT22;10146;47.754;9.566;2024-01-30T07:27:39;-0.70;99.90
19970;DHT22;10146;47.754;9.566;2024-01-30T07:30:05;-0.70;99.90
19970;DHT22;10146;47.754;9.566;2024-01-30T07:32:31;-0.70;99.90
19970;DHT22;10146;47.754;9.566;2024-01-30T07:34:57;-0.70;99.90
19970;DHT22;10146;47.754;9.566;2024-01-30T07:37:22;-0.60;99.90
19970;DHT22;10146;47.754;9.566;2024-01-30T07:39:48;-0.60;99.90
19970;DHT22;10146;47.754;9.566;2024-01-30T07:42:14;-0.60;99.90
19970;DHT22;10146;47.754;9.566;2024-01-30T07:44:39;-0.60;99.90
19970;DHT22;10146;47.754;9.566;2024-01-30T07:47:05;-0.60;99.90
19970;DHT22;10146;47.754;9.566;2024-01-30T07:49:34;-0.50;99.90
19970;DHT22;10146;47.754;9.566;2024-01-30T07:51:59;-0.50;99.90
19970;DHT22;10146;47.754;9.566;2024-01-30T07:54:25;-0.50;99.90
19970;DHT22;10146;47.754;9.566;2024-01-30T07:56:51;-0.40;99.90
19970;DHT22;10146;47.754;9.566;2024-01-30T07:59:16;-0.30;99.90
19970;DHT22;10146;47.754;9.566;2024-01-30T08:01:42;-0.30;99.90
19970;DHT22;10146;47.754;9.566;2024-01-30T08:04:07;-0.30;99.90
19970;DHT22;10146;47.754;9.566;2024-01-30T08:06:33;-0.30;99.90
19970;DHT22;10146;47.754;9.566;2024-01-30T08:08:59;-0.30;99.90
19970;DHT22;10146;47.754;9.566;2024-01-30T08:11:24;-0.20;99.90
19970;DHT22;10146;47.754;9.566;2024-01-30T08:13:55;-0.20;99.90
19970;DHT22;10146;47.754;9.566;2024-01-30T08:16:20;-0.20;99.90
19970;DHT22;10146;47.754;9.566;2024-01-30T08:18:46;-0.20;99.90
19970;DHT22;10146;47.754;9.566;2024-01-30T08:21:12;-0.20;99.90
19970;DHT22;10146;47.754;9.566;2024-01-30T08:23:42;-0.20;99.90
19970;DHT22;10146;47.754;9.566;2024-01-30T08:26:08;-0.20;99.90
19970;DHT22;10146;47.754;9.566;2024-01-30T08:28:34;-0.20;99.90
19970;DHT22;10146;47.754;9.566;2024-01-30T08:30:59;-0.20;99.90
19970;DHT22;10146;47.754;9.566;2024-01-30T08:33:25;-0.20;99.90
19970;DHT22;10146;47.754;9.566;2024-01-30T08:35:50;-0.10;99.90
19970;DHT22;10146;47.754;9.566;2024-01-30T08:38:16;-0.20;99.90
19970;DHT22;10146;47.754;9.566;2024-01-30T08:40:41;-0.20;99.90
19970;DHT22;10146;47.754;9.566;2024-01-30T08:43:07;-0.10;99.90
19970;DHT22;10146;47.754;9.566;2024-01-30T08:45:35;0.00;99.90
19970;DHT22;10146;47.754;9.566;2024-01-30T08:48:01;0.00;99.90
19970;DHT22;10146;47.754;9.566;2024-01-30T08:50:26;0.00;99.90
19970;DHT22;10146;47.754;9.566;2024-01-30T08:52:52;0.00;99.90
19970;DHT22;10146;47.754;9.566;2024-01-30T08:55:18;0.10;99.90
19970;DHT22;10146;47.754;9.566;2024-01-30T08:57:43;0.10;99.90
19970;DHT22;10146;47.754;9.566;2024-01-30T09:00:09;0.20;99.90
19970;DHT22;10146;47.754;9.566;2024-01-30T09:02:35;0.20;99.90
19970;DHT22;10146;47.754;9.566;2024-01-30T09:05:01;0.30;99.90
19970;DHT22;10146;47.754;9.566;2024-01-30T09:07:27;0.30;99.90
19970;DHT22;10146;47.754;9.566;2024-01-30T09:09:52;0.30;99.90
19970;DHT22;10146;47.754;9.566;2024-01-30T09:12:18;0.40;99.90
19970;DHT22;10146;47.754;9.566;2024-01-30T09:14:43;0.40;99.90
19970;DHT22;10146;47.754;9.566;2024-01-30T09:17:09;0.50;99.90
19970;DHT22;10146;47.754;9.566;2024-01-30T09:19:35;0.50;99.90
19970;DHT22;10146;47.754;9.566;2024-01-30T09:22:00;0.50;99.90
19970;DHT22;10146;47.754;9.566;2024-01-30T09:24:29;0.50;99.90
19970;DHT22;10146;47.754;9.566;2024-01-30T09:26:54;0.50;99.90
19970;DHT22;10146;47.754;9.566;2024-01-30T09:29:21;0.50;99.90
19970;DHT22;10146;47.754;9.566;2024-01-30T09:31:47;0.60;99.90
19970;DHT22;10146;47.754;9.566;2024-01-30T09:34:13;0.50;99.90
19970;DHT22;10146;47.754;9.566;2024-01-30T09:36:39;0.50;99.90
19970;DHT22;10146;47.754;9.566;2024-01-30T09:39:04;0.60;99.90
19970;DHT22;10146;47.754;9.566;2024-01-30T09:41:32;0.70;99.90
19970;DHT22;10146;47.754;9.566;2024-01-30T09:43:59;0.70;99.90
19970;DHT22;10146;47.754;9.566;2024-01-30T09:46:27;0.70;99.90
19970;DHT22;10146;47.754;9.566;2024-01-30T09:48:54;0.80;99.90
19970;DHT22;10146;47.754;9.566;2024-01-30T09:51:21;0.90;99.90
19970;DHT22;10146;47.754;9.566;2024-01-30T09:53:48;0.90;99.90
19970;DHT22;10146;47.754;9.566;2024-01-30T09:56:14;1.00;99.90
19970;DHT22;10146;47.754;9.566;2024-01-30T09:58:40;1.00;99.90
19970;DHT22;10146;47.754;9.566;2024-01-30T10:01:06;1.10;99.90
19970;DHT22;10146;47.754;9.566;2024-01-30T10:03:32;1.30;99.90
19970;DHT22;10146;47.754;9.566;2024-01-30T10:05:57;1.40;99.90
19970;DHT22;10146;47.754;9.566;2024-01-30T10:08:23;1.50;99.90
19970;DHT22;10146;47.754;9.566;2024-01-30T10:10:49;1.50;99.90
19970;DHT22;10146;47.754;9.566;2024-01-30T10:13:16;1.60;99.90
19970;DHT22;10146;47.754;9.566;2024-01-30T10:15:41;1.70;99.90
19970;DHT22;10146;47.754;9.566;2024-01-30T10:18:08;1.80;99.90
19970;DHT22;10146;47.754;9.566;2024-01-30T10:20:35;1.80;99.90
19970;DHT22;10146;47.754;9.566;2024-01-30T10:23:01;1.90;99.90
19970;DHT22;10146;47.754;9.566;2024-01-30T10:25:27;2.00;99.90
19970;DHT22;10146;47.754;9.566;2024-01-30T10:27:53;2.10;99.90
19970;DHT22;10146;47.754;9.566;2024-01-30T10:30:23;2.20;99.90
19970;DHT22;10146;47.754;9.566;2024-01-30T10:32:49;2.20;99.90
19970;DHT22;10146;47.754;9.566;2024-01-30T10:35:15;2.30;99.90
19970;DHT22;10146;47.754;9.566;2024-01-30T10:37:44;2.30;99.90
19970;DHT22;10146;47.754;9.566;2024-01-30T10:40:13;2.30;99.90
19970;DHT22;10146;47.754;9.566;2024-01-30T10:42:43;2.40;99.90
19970;DHT22;10146;47.754;9.566;2024-01-30T10:45:10;2.40;99.90
19970;DHT22;10146;47.754;9.566;2024-01-30T10:47:59;2.50;99.90
19970;DHT22;10146;47.754;9.566;2024-01-30T10:50:25;2.60;99.90
19970;DHT22;10146;47.754;9.566;2024-01-30T10:52:51;2.70;99.90
19970;DHT22;10146;47.754;9.566;2024-01-30T10:55:18;2.90;99.90
19970;DHT22;10146;47.754;9.566;2024-01-30T10:57:44;2.80;99.90
19970;DHT22;10146;47.754;9.566;2024-01-30T11:00:11;2.80;99.90
19970;DHT22;10146;47.754;9.566;2024-01-30T11:02:45;2.70;99.90
19970;DHT22;10146;47.754;9.566;2024-01-30T11:05:12;2.80;99.90
19970;DHT22;10146;47.754;9.566;2024-01-30T11:07:39;2.90;99.90
19970;DHT22;10146;47.754;9.566;2024-01-30T11:10:08;3.00;99.90
19970;DHT22;10146;47.754;9.566;2024-01-30T11:12:39;3.20;99.90
19970;DHT22;10146;47.754;9.566;2024-01-30T11:15:19;3.30;99.90
19970;DHT22;10146;47.754;9.566;2024-01-30T11:17:53;3.40;99.90
19970;DHT22;10146;47.754;9.566;2024-01-30T11:22:46;3.30;99.90
19970;DHT22;10146;47.754;9.566;2024-01-30T11:25:16;3.40;99.90
19970;DHT22;10146;47.754;9.566;2024-01-30T11:27:43;3.50;99.90
19970;DHT22;10146;47.754;9.566;2024-01-30T11:30:09;3.60;99.90
19970;DHT22;10146;47.754;9.566;2024-01-30T11:32:35;3.80;99.90
19970;DHT22;10146;47.754;9.566;2024-01-30T11:35:04;3.80;99.90
19970;DHT22;10146;47.754;9.566;2024-01-30T11:37:31;3.70;99.90
19970;DHT22;10146;47.754;9.566;2024-01-30T11:39:58;3.60;99.90
19970;DHT22;10146;47.754;9.566;2024-01-30T11:42:24;3.60;99.90
19970;DHT22;10146;47.754;9.566;2024-01-30T11:44:50;3.70;99.90
19970;DHT22;10146;47.754;9.566;2024-01-30T11:47:16;3.70;99.90
19970;DHT22;10146;47.754;9.566;2024-01-30T11:49:43;3.70;99.90
19970;DHT22;10146;47.754;9.566;2024-01-30T11:52:09;3.70;99.90
19970;DHT22;10146;47.754;9.566;2024-01-30T11:54:35;3.80;99.90
19970;DHT22;10146;47.754;9.566;2024-01-30T11:57:00;3.80;99.90
19970;DHT22;10146;47.754;9.566;2024-01-30T11:59:26;3.80;99.90
19970;DHT22;10146;47.754;9.566;2024-01-30T12:01:52;3.80;99.90
19970;DHT22;10146;47.754;9.566;2024-01-30T12:04:18;3.90;99.90
19970;DHT22;10146;47.754;9.566;2024-01-30T12:06:43;3.80;99.90
19970;DHT22;10146;47.754;9.566;2024-01-30T12:09:09;3.90;99.90
19970;DHT22;10146;47.754;9.566;2024-01-30T12:11:47;3.90;99.90
19970;DHT22;10146;47.754;9.566;2024-01-30T12:14:13;3.90;99.90
19970;DHT22;10146;47.754;9.566;2024-01-30T12:16:38;4.00;99.90
19970;DHT22;10146;47.754;9.566;2024-01-30T12:19:04;3.90;99.90
19970;DHT22;10146;47.754;9.566;2024-01-30T12:21:30;3.90;99.90
19970;DHT22;10146;47.754;9.566;2024-01-30T12:23:59;4.00;99.90
19970;DHT22;10146;47.754;9.566;2024-01-30T12:26:25;4.10;99.90
19970;DHT22;10146;47.754;9.566;2024-01-30T12:28:54;4.20;99.90
19970;DHT22;10146;47.754;9.566;2024-01-30T12:31:27;4.20;99.90
19970;DHT22;10146;47.754;9.566;2024-01-30T12:33:53;4.30;99.90
19970;DHT22;10146;47.754;9.566;2024-01-30T12:36:19;4.30;99.90
19970;DHT22;10146;47.754;9.566;2024-01-30T12:38:45;4.40;99.90
19970;DHT22;10146;47.754;9.566;2024-01-30T12:41:10;4.40;99.90
19970;DHT22;10146;47.754;9.566;2024-01-30T12:43:36;4.70;99.90
19970;DHT22;10146;47.754;9.566;2024-01-30T12:46:03;4.60;99.90
19970;DHT22;10146;47.754;9.566;2024-01-30T12:48:29;4.70;99.90
19970;DHT22;10146;47.754;9.566;2024-01-30T12:50:56;4.70;99.90
19970;DHT22;10146;47.754;9.566;2024-01-30T12:53:21;4.80;99.90
19970;DHT22;10146;47.754;9.566;2024-01-30T12:55:47;4.90;99.90
19970;DHT22;10146;47.754;9.566;2024-01-30T12:58:15;5.00;99.90
19970;DHT22;10146;47.754;9.566;2024-01-30T13:00:41;5.10;99.90
19970;DHT22;10146;47.754;9.566;2024-01-30T13:03:08;5.10;99.90
19970;DHT22;10146;47.754;9.566;2024-01-30T13:05:34;5.20;99.90
19970;DHT22;10146;47.754;9.566;2024-01-30T13:07:59;5.30;99.90
19970;DHT22;10146;47.754;9.566;2024-01-30T13:10:25;5.30;99.90
19970;DHT22;10146;47.754;9.566;2024-01-30T13:12:51;5.30;99.90
19970;DHT22;10146;47.754;9.566;2024-01-30T13:15:16;5.30;99.90
19970;DHT22;10146;47.754;9.566;2024-01-30T13:17:42;5.40;99.90
19970;DHT22;10146;47.754;9.566;2024-01-30T13:20:09;5.50;99.90
19970;DHT22;10146;47.754;9.566;2024-01-30T13:22:35;5.40;99.90
19970;DHT22;10146;47.754;9.566;2024-01-30T13:25:00;5.40;99.90
19970;DHT22;10146;47.754;9.566;2024-01-30T13:27:26;5.50;99.90
19970;DHT22;10146;47.754;9.566;2024-01-30T13:29:52;5.60;99.90
19970;DHT22;10146;47.754;9.566;2024-01-30T13:32:17;5.80;99.90
19970;DHT22;10146;47.754;9.566;2024-01-30T13:34:43;5.80;99.90
19970;DHT22;10146;47.754;9.566;2024-01-30T13:37:09;5.80;99.90
19970;DHT22;10146;47.754;9.566;2024-01-30T13:39:34;5.80;99.90
19970;DHT22;10146;47.754;9.566;2024-01-30T13:42:00;6.00;99.90
19970;DHT22;10146;47.754;9.566;2024-01-30T13:44:25;6.00;99.90
19970;DHT22;10146;47.754;9.566;2024-01-30T13:46:51;6.20;99.90
19970;DHT22;10146;47.754;9.566;2024-01-30T13:49:17;6.20;99.90
19970;DHT22;10146;47.754;9.566;2024-01-30T13:51:42;6.20;99.90
19970;DHT22;10146;47.754;9.566;2024-01-30T13:54:08;6.10;99.90
19970;DHT22;10146;47.754;9.566;2024-01-30T13:56:34;6.10;99.90
19970;DHT22;10146;47.754;9.566;2024-01-30T13:58:59;6.10;99.90
19970;DHT22;10146;47.754;9.566;2024-01-30T14:01:26;6.10;99.90
19970;DHT22;10146;47.754;9.566;2024-01-30T14:03:52;6.20;99.90
19970;DHT22;10146;47.754;9.566;2024-01-30T14:06:18;6.30;99.90
19970;DHT22;10146;47.754;9.566;2024-01-30T14:08:44;6.30;99.90
19970;DHT22;10146;47.754;9.566;2024-01-30T14:11:10;6.30;99.90
19970;DHT22;10146;47.754;9.566;2024-01-30T14:13:35;6.30;99.90
19970;DHT22;10146;47.754;9.566;2024-01-30T14:16:01;6.40;99.90
19970;DHT22;10146;47.754;9.566;2024-01-30T14:18:27;6.40;99.90
19970;DHT22;10146;47.754;9.566;2024-01-30T14:20:52;6.50;99.90
19970;DHT22;10146;47.754;9.566;2024-01-30T14:23:18;6.50;99.90
19970;DHT22;10146;47.754;9.566;2024-01-30T14:25:44;6.50;99.90
19970;DHT22;10146;47.754;9.566;2024-01-30T14:28:10;6.50;99.90
19970;DHT22;10146;47.754;9.566;2024-01-30T14:30:35;6.40;99.90
19970;DHT22;10146;47.754;9.566;2024-01-30T14:33:01;6.30;99.90
19970;DHT22;10146;47.754;9.566;2024-01-30T14:35:27;6.30;99.90
19970;DHT22;10146;47.754;9.566;2024-01-30T14:37:53;6.30;99.90
19970;DHT22;10146;47.754;9.566;2024-01-30T14:40:19;6.30;99.90
19970;DHT22;10146;47.754;9.566;2024-01-30T14:42:45;6.30;99.90
19970;DHT22;10146;47.754;9.566;2024-01-30T14:45:11;6.30;99.90
19970;DHT22;10146;47.754;9.566;2024-01-30T14:47:37;6.30;99.90
19970;DHT22;10146;47.754;9.566;2024-01-30T14:50:03;6.20;99.90
19970;DHT22;10146;47.754;9.566;2024-01-30T14:52:31;6.10;99.90
19970;DHT22;10146;47.754;9.566;2024-01-30T14:54:57;6.10;99.90
19970;DHT22;10146;47.754;9.566;2024-01-30T14:57:23;6.00;99.90
19970;DHT22;10146;47.754;9.566;2024-01-30T14:59:49;6.00;99.90
19970;DHT22;10146;47.754;9.566;2024-01-30T15:02:15;5.80;99.90
19970;DHT22;10146;47.754;9.566;2024-01-30T15:04:40;5.80;99.90
19970;DHT22;10146;47.754;9.566;2024-01-30T15:07:06;5.70;99.90
19970;DHT22;10146;47.754;9.566;2024-01-30T15:09:32;5.70;99.90
19970;DHT22;10146;47.754;9.566;2024-01-30T15:11:57;5.70;99.90
19970;DHT22;10146;47.754;9.566;2024-01-30T15:14:23;5.60;99.90
19970;DHT22;10146;47.754;9.566;2024-01-30T15:16:49;5.50;99.90
19970;DHT22;10146;47.754;9.566;2024-01-30T15:19:15;5.30;99.90
19970;DHT22;10146;47.754;9.566;2024-01-30T15:21:41;5.20;99.90
19970;DHT22;10146;47.754;9.566;2024-01-30T15:24:06;5.20;99.90
19970;DHT22;10146;47.754;9.566;2024-01-30T15:26:32;5.10;99.90
19970;DHT22;10146;47.754;9.566;2024-01-30T15:28:58;4.90;99.90
19970;DHT22;10146;47.754;9.566;2024-01-30T15:31:23;4.80;99.90
19970;DHT22;10146;47.754;9.566;2024-01-30T15:33:49;4.80;99.90